TimeCDT,TemperatureF,Dew PointF,Humidity,Sea Level PressureIn,VisibilityMPH,Wind Direction,Wind SpeedMPH,Gust SpeedMPH,PrecipitationIn,Events,Conditions,WindDirDegrees,DateUTC
12:15 AM,46.4,24.3,42,30.02,10.0,SSW,10.4,-,N/A,,Clear,210,2012-10-08 05:15:00
12:35 AM,45.9,24.8,44,30.02,10.0,SSW,11.5,-,N/A,,Clear,210,2012-10-08 05:35:00
12:55 AM,45.3,25.3,46,30.02,10.0,SSW,10.4,-,N/A,,Clear,210,2012-10-08 05:55:00
1:15 AM,45.0,25.7,47,30.02,10.0,SSW,9.2,-,N/A,,Clear,210,2012-10-08 06:15:00
1:35 AM,45.5,26.1,47,30.02,10.0,SSW,12.7,-,N/A,,Clear,210,2012-10-08 06:35:00
1:55 AM,45.0,26.6,49,30.01,10.0,SSW,11.5,16.1,N/A,,Clear,200,2012-10-08 06:55:00
2:15 AM,44.6,27.1,50,30.01,10.0,SSW,12.7,17.3,N/A,,Clear,210,2012-10-08 07:15:00
2:35 AM,44.1,27.5,52,30.01,10.0,SSW,10.4,17.3,N/A,,Clear,210,2012-10-08 07:35:00
2:55 AM,43.7,28.4,55,29.99,10.0,SSW,10.4,-,N/A,,Clear,210,2012-10-08 07:55:00
3:15 AM,43.5,29.1,57,29.99,10.0,SSW,11.5,-,N/A,,Clear,210,2012-10-08 08:15:00
3:35 AM,43.2,29.5,59,29.98,10.0,SSW,9.2,-,N/A,,Clear,210,2012-10-08 08:35:00
3:55 AM,43.2,30.2,60,29.97,10.0,SSW,10.4,-,N/A,,Clear,200,2012-10-08 08:55:00
4:15 AM,43.5,30.7,61,29.97,10.0,SSW,8.1,-,N/A,,Clear,210,2012-10-08 09:15:00
4:55 AM,42.8,31.5,64,29.96,10.0,South,11.5,-,N/A,,Clear,190,2012-10-08 09:55:00
5:15 AM,42.8,31.8,65,29.96,10.0,SSW,8.1,-,N/A,,Clear,200,2012-10-08 10:15:00
5:35 AM,43.3,32.0,64,29.96,10.0,SSW,9.2,-,N/A,,Clear,200,2012-10-08 10:35:00
5:55 AM,42.8,32.0,66,29.96,10.0,SSW,6.9,-,N/A,,Clear,200,2012-10-08 10:55:00
6:15 AM,42.8,32.0,66,29.96,10.0,SSW,8.1,-,N/A,,Clear,200,2012-10-08 11:15:00
6:35 AM,42.6,32.0,66,29.95,10.0,SSW,9.2,-,N/A,,Clear,200,2012-10-08 11:35:00
6:55 AM,42.4,32.0,67,29.95,10.0,SSW,9.2,16.1,N/A,,Clear,200,2012-10-08 11:55:00
7:15 AM,42.8,32.2,66,29.95,10.0,SSW,9.2,-,N/A,,Clear,210,2012-10-08 12:15:00
7:35 AM,43.3,32.4,65,29.95,10.0,SSW,9.2,-,N/A,,Clear,210,2012-10-08 12:35:00
7:55 AM,43.7,32.4,64,29.95,10.0,SSW,10.4,17.3,N/A,,Clear,210,2012-10-08 12:55:00
8:15 AM,44.6,32.4,62,29.95,10.0,SSW,10.4,17.3,N/A,,Clear,200,2012-10-08 13:15:00
8:35 AM,45.7,32.9,61,29.95,10.0,SSW,12.7,17.3,N/A,,Clear,210,2012-10-08 13:35:00
8:55 AM,46.9,32.9,58,29.95,10.0,SSW,11.5,18.4,N/A,,Clear,210,2012-10-08 13:55:00
9:15 AM,48.9,32.9,54,29.94,10.0,SSW,12.7,-,N/A,,Clear,210,2012-10-08 14:15:00
9:55 AM,52.7,32.2,46,29.94,10.0,SSW,12.7,17.3,N/A,,Clear,210,2012-10-08 14:55:00
10:15 AM,53.1,32.0,45,29.93,10.0,SW,15.0,20.7,N/A,,Clear,220,2012-10-08 15:15:00
10:35 AM,54.0,31.6,43,29.93,10.0,SSW,12.7,-,N/A,,Clear,210,2012-10-08 15:35:00
10:55 AM,55.6,31.6,40,29.93,10.0,SSW,10.4,-,N/A,,Clear,200,2012-10-08 15:55:00
11:15 AM,58.3,30.7,35,29.92,10.0,SSW,8.1,-,N/A,,Clear,210,2012-10-08 16:15:00
11:35 AM,59.4,29.3,32,29.91,10.0,SSW,13.8,19.6,N/A,,Clear,200,2012-10-08 16:35:00
11:55 AM,60.8,27.0,28,29.91,10.0,SSW,17.3,23.0,N/A,,Clear,200,2012-10-08 16:55:00
12:15 PM,62.2,26.6,26,29.90,10.0,SSW,17.3,23.0,N/A,,Clear,200,2012-10-08 17:15:00
12:55 PM,65.7,26.8,23,29.88,10.0,SSW,18.4,29.9,N/A,,Clear,200,2012-10-08 17:55:00
1:15 PM,67.3,26.2,21,29.88,10.0,SSW,16.1,28.8,N/A,,Clear,210,2012-10-08 18:15:00
1:35 PM,67.8,26.2,21,29.86,10.0,SSW,16.1,27.6,N/A,,Clear,210,2012-10-08 18:35:00
1:55 PM,68.2,26.6,21,29.86,10.0,SW,19.6,32.2,N/A,,Clear,220,2012-10-08 18:55:00
2:15 PM,68.2,27.3,22,29.85,10.0,SSW,19.6,27.6,N/A,,Clear,200,2012-10-08 19:15:00
2:35 PM,69.3,26.4,20,29.84,10.0,SSW,20.7,31.1,N/A,,Clear,210,2012-10-08 19:35:00
3:15 PM,69.6,25.0,19,29.82,10.0,SSW,19.6,33.4,N/A,,Clear,200,2012-10-08 20:15:00
3:35 PM,70.2,25.3,19,29.82,10.0,SSW,18.4,27.6,N/A,,Clear,200,2012-10-08 20:35:00
3:55 PM,69.8,25.5,19,29.81,10.0,SSW,20.7,29.9,N/A,,Clear,210,2012-10-08 20:55:00
4:15 PM,69.8,25.3,19,29.81,10.0,SSW,21.9,27.6,N/A,,Clear,200,2012-10-08 21:15:00
4:35 PM,69.1,25.5,19,29.80,10.0,SSW,20.7,28.8,N/A,,Clear,210,2012-10-08 21:35:00
4:55 PM,68.9,26.1,20,29.80,10.0,SSW,19.6,25.3,N/A,,Clear,200,2012-10-08 21:55:00
5:15 PM,68.9,26.6,20,29.80,10.0,SSW,18.4,27.6,N/A,,Clear,200,2012-10-08 22:15:00
5:35 PM,68.2,27.3,22,29.81,10.0,SSW,18.4,26.5,N/A,,Clear,210,2012-10-08 22:35:00
5:55 PM,67.3,27.7,23,29.81,10.0,SSW,16.1,24.2,N/A,,Clear,210,2012-10-08 22:55:00
6:15 PM,66.9,28.0,23,29.80,10.0,SSW,16.1,24.2,N/A,,Clear,200,2012-10-08 23:15:00
6:35 PM,66.4,28.4,24,29.80,10.0,SSW,13.8,21.9,N/A,,Clear,200,2012-10-08 23:35:00
6:55 PM,66.0,28.8,25,29.81,10.0,SSW,11.5,21.9,N/A,,Clear,200,2012-10-08 23:55:00
7:15 PM,65.3,29.1,26,29.81,10.0,SSW,17.3,-,N/A,,Clear,200,2012-10-09 00:15:00
7:35 PM,64.6,29.3,27,29.81,10.0,South,13.8,18.4,N/A,,Clear,190,2012-10-09 00:35:00
7:55 PM,64.4,29.3,27,29.81,10.0,South,13.8,-,N/A,,Clear,190,2012-10-09 00:55:00
8:15 PM,64.0,29.8,28,29.81,10.0,South,12.7,19.6,N/A,,Clear,180,2012-10-09 01:15:00
9:15 PM,63.7,30.7,29,29.82,10.0,SSW,12.7,27.6,N/A,,Clear,200,2012-10-09 02:15:00
9:35 PM,62.2,30.7,31,29.82,10.0,South,16.1,20.7,N/A,,Clear,190,2012-10-09 02:35:00
9:55 PM,61.2,30.7,32,29.82,10.0,South,16.1,20.7,N/A,,Clear,190,2012-10-09 02:55:00
10:15 PM,60.8,30.9,32,29.83,10.0,South,12.7,20.7,N/A,,Clear,190,2012-10-09 03:15:00
10:35 PM,60.1,31.1,33,29.83,10.0,SSW,12.7,19.6,N/A,,Clear,200,2012-10-09 03:35:00
10:55 PM,59.9,31.5,34,29.83,10.0,SSW,11.5,19.6,N/A,,Clear,200,2012-10-09 03:55:00
11:35 PM,58.1,32.0,37,29.84,10.0,SW,10.4,18.4,N/A,,Clear,220,2012-10-09 04:35:00
11:55 PM,56.5,32.4,40,29.85,10.0,SW,9.2,-,N/A,,Clear,230,2012-10-09 04:55:00